sensor_id;sensor_type;location;lat;lon;timestamp;P1;durP1;ratioP1;P2;durP2;ratioP2
79227;SDS011;68658;46.174;11.254;2023-06-10T00:01:49;8.32;;;4.97;;
79227;SDS011;68658;46.174;11.254;2023-06-10T00:04:15;8.95;;;4.47;;
79227;SDS011;68658;46.174;11.254;2023-06-10T00:06:41;10.00;;;4.78;;
79227;SDS011;68658;46.174;11.254;2023-06-10T00:09:08;8.90;;;4.95;;
79227;SDS011;68658;46.174;11.254;2023-06-10T00:11:35;9.18;;;4.35;;
79227;SDS011;68658;46.174;11.254;2023-06-10T00:14:01;7.25;;;3.95;;
79227;SDS011;68658;46.174;11.254;2023-06-10T00:16:27;8.25;;;3.95;;
79227;SDS011;68658;46.174;11.254;2023-06-10T00:18:53;7.07;;;4.22;;
79227;SDS011;68658;46.174;11.254;2023-06-10T00:21:26;7.68;;;4.13;;
79227;SDS011;68658;46.174;11.254;2023-06-10T00:23:52;9.30;;;5.00;;
79227;SDS011;68658;46.174;11.254;2023-06-10T00:26:18;8.63;;;4.57;;
79227;SDS011;68658;46.174;11.254;2023-06-10T00:28:43;9.52;;;4.78;;
79227;SDS011;68658;46.174;11.254;2023-06-10T00:31:10;7.15;;;3.95;;
79227;SDS011;68658;46.174;11.254;2023-06-10T00:33:35;9.32;;;4.88;;
79227;SDS011;68658;46.174;11.254;2023-06-10T00:36:01;8.00;;;3.65;;
79227;SDS011;68658;46.174;11.254;2023-06-10T00:38:26;7.15;;;3.75;;
79227;SDS011;68658;46.174;11.254;2023-06-10T00:40:52;7.05;;;4.60;;
79227;SDS011;68658;46.174;11.254;2023-06-10T00:43:17;6.82;;;3.85;;
79227;SDS011;68658;46.174;11.254;2023-06-10T00:45:42;8.73;;;5.10;;
79227;SDS011;68658;46.174;11.254;2023-06-10T00:48:11;8.23;;;3.95;;
79227;SDS011;68658;46.174;11.254;2023-06-10T00:50:36;7.45;;;4.18;;
79227;SDS011;68658;46.174;11.254;2023-06-10T00:53:04;7.95;;;4.18;;
79227;SDS011;68658;46.174;11.254;2023-06-10T00:55:30;8.27;;;4.70;;
79227;SDS011;68658;46.174;11.254;2023-06-10T00:58:00;8.30;;;4.30;;
79227;SDS011;68658;46.174;11.254;2023-06-10T01:00:29;7.93;;;3.92;;
79227;SDS011;68658;46.174;11.254;2023-06-10T01:02:54;7.55;;;3.72;;
79227;SDS011;68658;46.174;11.254;2023-06-10T01:05:20;7.90;;;4.70;;
79227;SDS011;68658;46.174;11.254;2023-06-10T01:10:57;9.55;;;4.68;;
79227;SDS011;68658;46.174;11.254;2023-06-10T01:13:25;9.40;;;4.15;;
79227;SDS011;68658;46.174;11.254;2023-06-10T01:15:57;8.10;;;3.75;;
79227;SDS011;68658;46.174;11.254;2023-06-10T01:18:23;9.57;;;4.85;;
79227;SDS011;68658;46.174;11.254;2023-06-10T01:20:55;9.70;;;5.13;;
79227;SDS011;68658;46.174;11.254;2023-06-10T01:23:21;7.85;;;4.22;;
79227;SDS011;68658;46.174;11.254;2023-06-10T01:25:53;8.80;;;4.13;;
79227;SDS011;68658;46.174;11.254;2023-06-10T01:31:16;8.05;;;3.92;;
79227;SDS011;68658;46.174;11.254;2023-06-10T01:33:45;9.13;;;4.18;;
79227;SDS011;68658;46.174;11.254;2023-06-10T01:38:42;8.55;;;3.92;;
79227;SDS011;68658;46.174;11.254;2023-06-10T01:41:09;9.32;;;4.82;;
79227;SDS011;68658;46.174;11.254;2023-06-10T01:43:37;10.88;;;4.80;;
79227;SDS011;68658;46.174;11.254;2023-06-10T01:46:03;8.82;;;4.65;;
79227;SDS011;68658;46.174;11.254;2023-06-10T01:48:29;9.13;;;4.50;;
79227;SDS011;68658;46.174;11.254;2023-06-10T01:53:30;10.80;;;4.50;;
79227;SDS011;68658;46.174;11.254;2023-06-10T01:55:55;9.77;;;4.78;;
79227;SDS011;68658;46.174;11.254;2023-06-10T01:58:21;9.68;;;5.15;;
79227;SDS011;68658;46.174;11.254;2023-06-10T02:00:46;10.25;;;4.93;;
79227;SDS011;68658;46.174;11.254;2023-06-10T02:03:12;7.75;;;4.47;;
79227;SDS011;68658;46.174;11.254;2023-06-10T02:05:37;9.20;;;4.65;;
79227;SDS011;68658;46.174;11.254;2023-06-10T02:08:04;9.15;;;4.93;;
79227;SDS011;68658;46.174;11.254;2023-06-10T02:10:29;8.82;;;4.63;;
79227;SDS011;68658;46.174;11.254;2023-06-10T02:12:55;10.90;;;5.65;;
79227;SDS011;68658;46.174;11.254;2023-06-10T02:15:20;9.00;;;4.93;;
79227;SDS011;68658;46.174;11.254;2023-06-10T02:17:46;9.30;;;4.43;;
79227;SDS011;68658;46.174;11.254;2023-06-10T02:20:11;8.80;;;4.53;;
79227;SDS011;68658;46.174;11.254;2023-06-10T02:22:38;8.70;;;4.70;;
79227;SDS011;68658;46.174;11.254;2023-06-10T02:25:04;11.18;;;5.25;;
79227;SDS011;68658;46.174;11.254;2023-06-10T02:27:30;8.35;;;4.68;;
79227;SDS011;68658;46.174;11.254;2023-06-10T02:29:56;7.65;;;3.80;;
79227;SDS011;68658;46.174;11.254;2023-06-10T02:32:22;11.13;;;4.68;;
79227;SDS011;68658;46.174;11.254;2023-06-10T02:34:48;8.95;;;5.40;;
79227;SDS011;68658;46.174;11.254;2023-06-10T02:37:16;7.25;;;3.92;;
79227;SDS011;68658;46.174;11.254;2023-06-10T02:39:42;8.00;;;4.10;;
79227;SDS011;68658;46.174;11.254;2023-06-10T02:42:08;8.15;;;4.35;;
79227;SDS011;68658;46.174;11.254;2023-06-10T02:44:33;9.65;;;4.80;;
79227;SDS011;68658;46.174;11.254;2023-06-10T02:46:59;7.25;;;3.97;;
79227;SDS011;68658;46.174;11.254;2023-06-10T02:49:24;9.35;;;4.53;;
79227;SDS011;68658;46.174;11.254;2023-06-10T02:51:52;8.57;;;4.00;;
79227;SDS011;68658;46.174;11.254;2023-06-10T02:54:21;8.02;;;3.95;;
79227;SDS011;68658;46.174;11.254;2023-06-10T02:56:47;9.52;;;4.30;;
79227;SDS011;68658;46.174;11.254;2023-06-10T02:59:13;8.75;;;4.47;;
79227;SDS011;68658;46.174;11.254;2023-06-10T03:01:39;8.20;;;4.45;;
79227;SDS011;68658;46.174;11.254;2023-06-10T03:04:05;8.32;;;4.28;;
79227;SDS011;68658;46.174;11.254;2023-06-10T03:06:31;7.97;;;3.90;;
79227;SDS011;68658;46.174;11.254;2023-06-10T03:09:00;9.02;;;4.07;;
79227;SDS011;68658;46.174;11.254;2023-06-10T03:11:26;8.85;;;4.43;;
79227;SDS011;68658;46.174;11.254;2023-06-10T03:13:52;8.95;;;4.78;;
79227;SDS011;68658;46.174;11.254;2023-06-10T03:16:19;7.90;;;3.97;;
79227;SDS011;68658;46.174;11.254;2023-06-10T03:18:44;9.88;;;4.88;;
79227;SDS011;68658;46.174;11.254;2023-06-10T03:21:10;7.68;;;4.13;;
79227;SDS011;68658;46.174;11.254;2023-06-10T03:23:36;8.63;;;4.22;;
79227;SDS011;68658;46.174;11.254;2023-06-10T03:26:01;7.63;;;4.10;;
79227;SDS011;68658;46.174;11.254;2023-06-10T03:28:27;8.50;;;4.63;;
79227;SDS011;68658;46.174;11.254;2023-06-10T03:30:52;7.15;;;3.78;;
79227;SDS011;68658;46.174;11.254;2023-06-10T03:33:18;7.75;;;3.83;;
79227;SDS011;68658;46.174;11.254;2023-06-10T03:35:43;7.68;;;3.53;;
79227;SDS011;68658;46.174;11.254;2023-06-10T03:38:09;7.45;;;3.90;;
79227;SDS011;68658;46.174;11.254;2023-06-10T03:40:34;8.02;;;4.05;;
79227;SDS011;68658;46.174;11.254;2023-06-10T03:43:00;7.70;;;3.85;;
79227;SDS011;68658;46.174;11.254;2023-06-10T03:45:25;9.38;;;4.05;;
79227;SDS011;68658;46.174;11.254;2023-06-10T03:47:53;9.05;;;4.03;;
79227;SDS011;68658;46.174;11.254;2023-06-10T03:50:18;6.93;;;3.78;;
79227;SDS011;68658;46.174;11.254;2023-06-10T03:52:44;7.80;;;3.65;;
79227;SDS011;68658;46.174;11.254;2023-06-10T03:55:10;8.20;;;3.80;;
79227;SDS011;68658;46.174;11.254;2023-06-10T03:57:38;8.02;;;4.38;;
79227;SDS011;68658;46.174;11.254;2023-06-10T04:00:04;8.98;;;3.00;;
79227;SDS011;68658;46.174;11.254;2023-06-10T04:02:37;8.45;;;3.28;;
79227;SDS011;68658;46.174;11.254;2023-06-10T04:05:11;6.03;;;2.92;;
79227;SDS011;68658;46.174;11.254;2023-06-10T04:07:37;5.78;;;3.10;;
79227;SDS011;68658;46.174;11.254;2023-06-10T04:10:04;9.30;;;3.15;;
79227;SDS011;68658;46.174;11.254;2023-06-10T04:12:31;7.90;;;2.83;;
79227;SDS011;68658;46.174;11.254;2023-06-10T04:14:56;6.97;;;2.88;;
79227;SDS011;68658;46.174;11.254;2023-06-10T04:17:22;7.18;;;3.38;;
79227;SDS011;68658;46.174;11.254;2023-06-10T04:19:47;7.60;;;4.07;;
79227;SDS011;68658;46.174;11.254;2023-06-10T04:22:13;6.07;;;3.15;;
79227;SDS011;68658;46.174;11.254;2023-06-10T04:24:38;12.27;;;3.33;;
79227;SDS011;68658;46.174;11.254;2023-06-10T04:27:04;8.02;;;3.92;;
79227;SDS011;68658;46.174;11.254;2023-06-10T04:29:30;7.15;;;3.47;;
79227;SDS011;68658;46.174;11.254;2023-06-10T04:31:55;6.93;;;3.85;;
79227;SDS011;68658;46.174;11.254;2023-06-10T04:34:21;7.07;;;3.53;;
79227;SDS011;68658;46.174;11.254;2023-06-10T04:36:46;6.65;;;2.75;;
79227;SDS011;68658;46.174;11.254;2023-06-10T04:39:12;7.22;;;3.05;;
79227;SDS011;68658;46.174;11.254;2023-06-10T04:41:38;5.80;;;3.45;;
79227;SDS011;68658;46.174;11.254;2023-06-10T04:44:03;5.10;;;2.00;;
79227;SDS011;68658;46.174;11.254;2023-06-10T04:46:29;5.35;;;3.05;;
79227;SDS011;68658;46.174;11.254;2023-06-10T04:48:56;4.40;;;1.90;;
79227;SDS011;68658;46.174;11.254;2023-06-10T04:51:22;4.70;;;2.28;;
79227;SDS011;68658;46.174;11.254;2023-06-10T04:53:47;5.38;;;1.77;;
79227;SDS011;68658;46.174;11.254;2023-06-10T04:56:13;3.45;;;1.90;;
79227;SDS011;68658;46.174;11.254;2023-06-10T04:58:40;6.25;;;2.05;;
79227;SDS011;68658;46.174;11.254;2023-06-10T05:01:05;4.15;;;1.30;;
79227;SDS011;68658;46.174;11.254;2023-06-10T05:03:30;6.60;;;1.42;;
79227;SDS011;68658;46.174;11.254;2023-06-10T05:05:56;5.72;;;2.10;;
79227;SDS011;68658;46.174;11.254;2023-06-10T05:08:21;4.40;;;2.58;;
79227;SDS011;68658;46.174;11.254;2023-06-10T05:10:47;4.22;;;1.73;;
79227;SDS011;68658;46.174;11.254;2023-06-10T05:13:12;4.40;;;1.80;;
79227;SDS011;68658;46.174;11.254;2023-06-10T05:15:38;5.25;;;2.00;;
79227;SDS011;68658;46.174;11.254;2023-06-10T05:18:03;4.07;;;1.77;;
79227;SDS011;68658;46.174;11.254;2023-06-10T05:20:29;4.63;;;1.65;;
79227;SDS011;68658;46.174;11.254;2023-06-10T05:22:55;3.70;;;1.48;;
79227;SDS011;68658;46.174;11.254;2023-06-10T05:25:20;5.95;;;2.13;;
79227;SDS011;68658;46.174;11.254;2023-06-10T05:27:46;2.70;;;1.25;;
79227;SDS011;68658;46.174;11.254;2023-06-10T05:30:12;3.00;;;1.40;;
79227;SDS011;68658;46.174;11.254;2023-06-10T05:32:37;3.97;;;1.67;;
79227;SDS011;68658;46.174;11.254;2023-06-10T05:35:03;4.65;;;1.50;;
79227;SDS011;68658;46.174;11.254;2023-06-10T05:37:33;4.47;;;1.42;;
79227;SDS011;68658;46.174;11.254;2023-06-10T05:39:59;5.50;;;1.83;;
79227;SDS011;68658;46.174;11.254;2023-06-10T05:42:25;4.88;;;2.13;;
79227;SDS011;68658;46.174;11.254;2023-06-10T05:44:50;4.30;;;1.63;;
79227;SDS011;68658;46.174;11.254;2023-06-10T05:47:15;4.32;;;1.77;;
79227;SDS011;68658;46.174;11.254;2023-06-10T05:49:41;4.85;;;1.83;;
79227;SDS011;68658;46.174;11.254;2023-06-10T05:52:06;5.10;;;1.60;;
79227;SDS011;68658;46.174;11.254;2023-06-10T05:54:32;5.45;;;1.42;;
79227;SDS011;68658;46.174;11.254;2023-06-10T05:56:57;4.07;;;1.92;;
79227;SDS011;68658;46.174;11.254;2023-06-10T05:59:23;5.28;;;1.95;;
79227;SDS011;68658;46.174;11.254;2023-06-10T06:01:48;5.85;;;2.10;;
79227;SDS011;68658;46.174;11.254;2023-06-10T06:04:15;4.10;;;1.58;;
79227;SDS011;68658;46.174;11.254;2023-06-10T06:06:41;5.13;;;2.08;;
79227;SDS011;68658;46.174;11.254;2023-06-10T06:09:06;5.20;;;1.90;;
79227;SDS011;68658;46.174;11.254;2023-06-10T06:11:33;3.92;;;1.30;;
79227;SDS011;68658;46.174;11.254;2023-06-10T06:13:59;4.40;;;1.63;;
79227;SDS011;68658;46.174;11.254;2023-06-10T06:16:24;4.15;;;1.67;;
79227;SDS011;68658;46.174;11.254;2023-06-10T06:18:50;3.92;;;1.33;;
79227;SDS011;68658;46.174;11.254;2023-06-10T06:21:15;5.47;;;1.73;;
79227;SDS011;68658;46.174;11.254;2023-06-10T06:23:41;3.30;;;1.95;;
79227;SDS011;68658;46.174;11.254;2023-06-10T06:26:06;3.88;;;1.60;;
79227;SDS011;68658;46.174;11.254;2023-06-10T06:28:32;4.90;;;1.90;;
79227;SDS011;68658;46.174;11.254;2023-06-10T06:30:57;4.15;;;1.42;;
79227;SDS011;68658;46.174;11.254;2023-06-10T06:33:23;4.15;;;1.60;;
79227;SDS011;68658;46.174;11.254;2023-06-10T06:35:48;4.43;;;1.33;;
79227;SDS011;68658;46.174;11.254;2023-06-10T06:38:14;4.32;;;1.85;;
79227;SDS011;68658;46.174;11.254;2023-06-10T06:40:39;4.88;;;1.27;;
79227;SDS011;68658;46.174;11.254;2023-06-10T06:43:05;3.55;;;1.63;;
79227;SDS011;68658;46.174;11.254;2023-06-10T06:45:30;5.18;;;2.20;;
79227;SDS011;68658;46.174;11.254;2023-06-10T06:47:56;4.22;;;1.58;;
79227;SDS011;68658;46.174;11.254;2023-06-10T06:50:21;4.18;;;1.85;;
79227;SDS011;68658;46.174;11.254;2023-06-10T06:52:49;5.88;;;1.58;;
79227;SDS011;68658;46.174;11.254;2023-06-10T06:55:15;5.47;;;2.00;;
79227;SDS011;68658;46.174;11.254;2023-06-10T06:57:40;5.22;;;2.03;;
79227;SDS011;68658;46.174;11.254;2023-06-10T07:00:06;4.53;;;2.00;;
79227;SDS011;68658;46.174;11.254;2023-06-10T07:02:34;4.72;;;2.22;;
79227;SDS011;68658;46.174;11.254;2023-06-10T07:05:00;4.00;;;1.50;;
79227;SDS011;68658;46.174;11.254;2023-06-10T07:07:26;5.72;;;2.03;;
79227;SDS011;68658;46.174;11.254;2023-06-10T07:09:52;4.43;;;1.60;;
79227;SDS011;68658;46.174;11.254;2023-06-10T07:12:18;4.95;;;1.35;;
79227;SDS011;68658;46.174;11.254;2023-06-10T07:14:44;4.20;;;1.65;;
79227;SDS011;68658;46.174;11.254;2023-06-10T07:17:10;5.35;;;1.77;;
79227;SDS011;68658;46.174;11.254;2023-06-10T07:19:35;4.28;;;1.70;;
79227;SDS011;68658;46.174;11.254;2023-06-10T07:22:04;5.38;;;1.90;;
79227;SDS011;68658;46.174;11.254;2023-06-10T07:24:30;5.93;;;2.50;;
79227;SDS011;68658;46.174;11.254;2023-06-10T07:26:56;4.75;;;2.03;;
79227;SDS011;68658;46.174;11.254;2023-06-10T07:29:22;5.43;;;2.72;;
79227;SDS011;68658;46.174;11.254;2023-06-10T07:31:47;5.00;;;1.83;;
79227;SDS011;68658;46.174;11.254;2023-06-10T07:34:12;4.63;;;2.00;;
79227;SDS011;68658;46.174;11.254;2023-06-10T07:36:38;7.28;;;2.03;;
79227;SDS011;68658;46.174;11.254;2023-06-10T07:39:03;4.95;;;2.22;;
79227;SDS011;68658;46.174;11.254;2023-06-10T07:41:29;5.60;;;2.78;;
79227;SDS011;68658;46.174;11.254;2023-06-10T07:44:00;6.18;;;3.10;;
79227;SDS011;68658;46.174;11.254;2023-06-10T07:46:26;6.93;;;3.00;;
79227;SDS011;68658;46.174;11.254;2023-06-10T07:48:53;7.20;;;3.00;;
79227;SDS011;68658;46.174;11.254;2023-06-10T07:51:19;7.57;;;3.60;;
79227;SDS011;68658;46.174;11.254;2023-06-10T07:53:45;8.15;;;3.90;;
79227;SDS011;68658;46.174;11.254;2023-06-10T07:56:10;6.97;;;3.63;;
79227;SDS011;68658;46.174;11.254;2023-06-10T07:58:36;9.77;;;4.80;;
79227;SDS011;68658;46.174;11.254;2023-06-10T08:01:01;7.65;;;4.40;;
79227;SDS011;68658;46.174;11.254;2023-06-10T08:03:27;9.50;;;5.30;;
79227;SDS011;68658;46.174;11.254;2023-06-10T08:05:55;8.05;;;4.40;;
79227;SDS011;68658;46.174;11.254;2023-06-10T08:08:21;8.40;;;3.80;;
79227;SDS011;68658;46.174;11.254;2023-06-10T08:10:46;9.20;;;4.82;;
79227;SDS011;68658;46.174;11.254;2023-06-10T08:13:13;7.75;;;4.20;;
79227;SDS011;68658;46.174;11.254;2023-06-10T08:15:41;8.80;;;4.63;;
79227;SDS011;68658;46.174;11.254;2023-06-10T08:18:06;9.27;;;4.25;;
79227;SDS011;68658;46.174;11.254;2023-06-10T08:20:32;9.23;;;5.32;;
79227;SDS011;68658;46.174;11.254;2023-06-10T08:22:57;8.95;;;4.88;;
79227;SDS011;68658;46.174;11.254;2023-06-10T08:25:23;8.85;;;4.35;;
79227;SDS011;68658;46.174;11.254;2023-06-10T08:27:48;9.20;;;4.72;;
79227;SDS011;68658;46.174;11.254;2023-06-10T08:30:15;8.75;;;4.55;;
79227;SDS011;68658;46.174;11.254;2023-06-10T08:32:41;11.45;;;5.07;;
79227;SDS011;68658;46.174;11.254;2023-06-10T08:35:07;9.35;;;4.53;;
79227;SDS011;68658;46.174;11.254;2023-06-10T08:37:33;9.52;;;4.75;;
79227;SDS011;68658;46.174;11.254;2023-06-10T08:39:58;8.85;;;4.35;;
79227;SDS011;68658;46.174;11.254;2023-06-10T08:42:34;11.40;;;4.68;;
79227;SDS011;68658;46.174;11.254;2023-06-10T08:45:05;10.05;;;5.43;;
79227;SDS011;68658;46.174;11.254;2023-06-10T08:47:33;8.68;;;4.47;;
79227;SDS011;68658;46.174;11.254;2023-06-10T08:50:03;9.50;;;4.82;;
79227;SDS011;68658;46.174;11.254;2023-06-10T08:52:36;9.80;;;5.15;;
79227;SDS011;68658;46.174;11.254;2023-06-10T08:55:03;10.18;;;5.10;;
79227;SDS011;68658;46.174;11.254;2023-06-10T08:57:34;10.43;;;4.63;;
79227;SDS011;68658;46.174;11.254;2023-06-10T09:00:00;8.95;;;5.70;;
79227;SDS011;68658;46.174;11.254;2023-06-10T09:02:26;9.13;;;4.30;;
79227;SDS011;68658;46.174;11.254;2023-06-10T09:04:52;8.88;;;4.78;;
79227;SDS011;68658;46.174;11.254;2023-06-10T09:07:18;9.35;;;5.03;;
79227;SDS011;68658;46.174;11.254;2023-06-10T09:09:45;11.55;;;5.47;;
79227;SDS011;68658;46.174;11.254;2023-06-10T09:12:11;10.90;;;6.13;;
79227;SDS011;68658;46.174;11.254;2023-06-10T09:14:38;12.70;;;5.25;;
79227;SDS011;68658;46.174;11.254;2023-06-10T09:17:04;9.45;;;5.13;;
79227;SDS011;68658;46.174;11.254;2023-06-10T09:19:36;10.10;;;6.00;;
79227;SDS011;68658;46.174;11.254;2023-06-10T09:22:03;9.75;;;5.32;;
79227;SDS011;68658;46.174;11.254;2023-06-10T09:24:29;10.43;;;5.43;;
79227;SDS011;68658;46.174;11.254;2023-06-10T09:27:02;10.68;;;5.40;;
79227;SDS011;68658;46.174;11.254;2023-06-10T09:29:29;10.20;;;4.90;;
79227;SDS011;68658;46.174;11.254;2023-06-10T09:31:54;11.48;;;6.03;;
79227;SDS011;68658;46.174;11.254;2023-06-10T09:34:24;10.02;;;5.72;;
79227;SDS011;68658;46.174;11.254;2023-06-10T09:36:50;9.82;;;5.95;;
79227;SDS011;68658;46.174;11.254;2023-06-10T09:39:19;10.27;;;5.53;;
79227;SDS011;68658;46.174;11.254;2023-06-10T09:41:46;9.65;;;5.28;;
79227;SDS011;68658;46.174;11.254;2023-06-10T09:44:12;9.68;;;5.25;;
79227;SDS011;68658;46.174;11.254;2023-06-10T09:46:39;11.13;;;5.60;;
79227;SDS011;68658;46.174;11.254;2023-06-10T09:49:05;10.50;;;5.28;;
79227;SDS011;68658;46.174;11.254;2023-06-10T09:51:31;8.75;;;4.90;;
79227;SDS011;68658;46.174;11.254;2023-06-10T09:53:57;10.68;;;6.93;;
79227;SDS011;68658;46.174;11.254;2023-06-10T09:56:33;11.68;;;5.55;;
79227;SDS011;68658;46.174;11.254;2023-06-10T09:59:03;13.40;;;6.05;;
79227;SDS011;68658;46.174;11.254;2023-06-10T10:01:32;15.73;;;7.32;;
79227;SDS011;68658;46.174;11.254;2023-06-10T10:03:58;12.82;;;7.05;;
79227;SDS011;68658;46.174;11.254;2023-06-10T10:06:24;12.70;;;6.43;;
79227;SDS011;68658;46.174;11.254;2023-06-10T10:08:50;12.18;;;6.65;;
79227;SDS011;68658;46.174;11.254;2023-06-10T10:11:17;13.68;;;7.93;;
79227;SDS011;68658;46.174;11.254;2023-06-10T10:13:48;14.27;;;7.60;;
79227;SDS011;68658;46.174;11.254;2023-06-10T10:16:16;16.75;;;7.93;;
79227;SDS011;68658;46.174;11.254;2023-06-10T10:21:16;13.32;;;7.38;;
79227;SDS011;68658;46.174;11.254;2023-06-10T10:26:22;16.73;;;7.57;;
79227;SDS011;68658;46.174;11.254;2023-06-10T10:28:53;14.45;;;6.82;;
79227;SDS011;68658;46.174;11.254;2023-06-10T10:31:23;12.57;;;7.80;;
79227;SDS011;68658;46.174;11.254;2023-06-10T10:34:00;12.63;;;6.22;;
79227;SDS011;68658;46.174;11.254;2023-06-10T10:36:29;10.43;;;6.63;;
79227;SDS011;68658;46.174;11.254;2023-06-10T10:38:56;12.98;;;6.10;;
79227;SDS011;68658;46.174;11.254;2023-06-10T10:41:24;11.50;;;6.50;;
79227;SDS011;68658;46.174;11.254;2023-06-10T10:43:51;13.13;;;6.47;;
79227;SDS011;68658;46.174;11.254;2023-06-10T10:46:17;11.52;;;5.68;;
79227;SDS011;68658;46.174;11.254;2023-06-10T10:48:43;11.60;;;5.47;;
79227;SDS011;68658;46.174;11.254;2023-06-10T10:51:10;8.57;;;4.68;;
79227;SDS011;68658;46.174;11.254;2023-06-10T10:53:39;9.00;;;4.40;;
79227;SDS011;68658;46.174;11.254;2023-06-10T10:56:14;11.40;;;5.22;;
79227;SDS011;68658;46.174;11.254;2023-06-10T11:01:42;8.27;;;4.65;;
79227;SDS011;68658;46.174;11.254;2023-06-10T11:04:11;8.10;;;4.43;;
79227;SDS011;68658;46.174;11.254;2023-06-10T11:06:37;9.98;;;4.85;;
79227;SDS011;68658;46.174;11.254;2023-06-10T11:11:58;9.05;;;5.25;;
79227;SDS011;68658;46.174;11.254;2023-06-10T11:14:27;7.75;;;4.28;;
79227;SDS011;68658;46.174;11.254;2023-06-10T11:16:53;8.93;;;4.20;;
79227;SDS011;68658;46.174;11.254;2023-06-10T11:19:31;10.18;;;4.25;;
79227;SDS011;68658;46.174;11.254;2023-06-10T11:21:59;9.27;;;3.97;;
79227;SDS011;68658;46.174;11.254;2023-06-10T11:24:25;8.25;;;4.68;;
79227;SDS011;68658;46.174;11.254;2023-06-10T11:26:51;8.00;;;4.00;;
79227;SDS011;68658;46.174;11.254;2023-06-10T11:29:17;10.75;;;5.03;;
79227;SDS011;68658;46.174;11.254;2023-06-10T11:31:49;8.95;;;4.53;;
79227;SDS011;68658;46.174;11.254;2023-06-10T11:34:20;7.63;;;3.58;;
79227;SDS011;68658;46.174;11.254;2023-06-10T11:36:48;10.10;;;4.55;;
79227;SDS011;68658;46.174;11.254;2023-06-10T11:39:14;9.70;;;4.90;;
79227;SDS011;68658;46.174;11.254;2023-06-10T11:41:39;8.00;;;3.97;;
79227;SDS011;68658;46.174;11.254;2023-06-10T11:44:12;9.05;;;4.40;;
79227;SDS011;68658;46.174;11.254;2023-06-10T11:46:39;7.40;;;3.83;;
79227;SDS011;68658;46.174;11.254;2023-06-10T11:49:05;8.73;;;4.78;;
79227;SDS011;68658;46.174;11.254;2023-06-10T11:51:35;8.30;;;5.35;;
79227;SDS011;68658;46.174;11.254;2023-06-10T11:54:02;8.00;;;4.82;;
79227;SDS011;68658;46.174;11.254;2023-06-10T11:56:29;8.20;;;4.53;;
79227;SDS011;68658;46.174;11.254;2023-06-10T11:59:00;7.32;;;4.10;;
79227;SDS011;68658;46.174;11.254;2023-06-10T12:01:35;12.52;;;5.07;;
79227;SDS011;68658;46.174;11.254;2023-06-10T12:04:05;8.68;;;4.85;;
79227;SDS011;68658;46.174;11.254;2023-06-10T12:09:18;9.20;;;4.10;;
79227;SDS011;68658;46.174;11.254;2023-06-10T12:11:51;10.20;;;5.20;;
79227;SDS011;68658;46.174;11.254;2023-06-10T12:22:42;8.07;;;4.72;;
79227;SDS011;68658;46.174;11.254;2023-06-10T12:25:10;7.03;;;4.18;;
79227;SDS011;68658;46.174;11.254;2023-06-10T12:27:37;8.13;;;4.50;;
79227;SDS011;68658;46.174;11.254;2023-06-10T12:30:04;7.28;;;3.85;;
79227;SDS011;68658;46.174;11.254;2023-06-10T12:32:41;8.07;;;4.00;;
79227;SDS011;68658;46.174;11.254;2023-06-10T12:35:11;7.47;;;3.28;;
79227;SDS011;68658;46.174;11.254;2023-06-10T12:37:38;7.45;;;3.60;;
79227;SDS011;68658;46.174;11.254;2023-06-10T12:40:05;8.38;;;4.75;;
79227;SDS011;68658;46.174;11.254;2023-06-10T12:42:37;5.80;;;3.90;;
79227;SDS011;68658;46.174;11.254;2023-06-10T12:45:04;6.75;;;3.22;;
79227;SDS011;68658;46.174;11.254;2023-06-10T12:47:32;6.55;;;3.88;;
79227;SDS011;68658;46.174;11.254;2023-06-10T12:50:03;8.32;;;4.55;;
79227;SDS011;68658;46.174;11.254;2023-06-10T12:52:29;6.85;;;3.75;;
79227;SDS011;68658;46.174;11.254;2023-06-10T12:54:55;6.95;;;3.85;;
79227;SDS011;68658;46.174;11.254;2023-06-10T12:57:21;6.97;;;3.22;;
79227;SDS011;68658;46.174;11.254;2023-06-10T12:59:47;7.32;;;3.42;;
79227;SDS011;68658;46.174;11.254;2023-06-10T13:02:17;6.63;;;3.65;;
79227;SDS011;68658;46.174;11.254;2023-06-10T13:04:48;7.30;;;3.95;;
79227;SDS011;68658;46.174;11.254;2023-06-10T13:07:14;7.75;;;3.13;;
79227;SDS011;68658;46.174;11.254;2023-06-10T13:09:40;8.02;;;4.00;;
79227;SDS011;68658;46.174;11.254;2023-06-10T13:12:06;6.60;;;3.75;;
79227;SDS011;68658;46.174;11.254;2023-06-10T13:14:32;7.53;;;3.45;;
79227;SDS011;68658;46.174;11.254;2023-06-10T13:16:58;6.25;;;4.28;;
79227;SDS011;68658;46.174;11.254;2023-06-10T13:19:26;9.45;;;5.55;;
79227;SDS011;68658;46.174;11.254;2023-06-10T13:21:52;8.18;;;3.95;;
79227;SDS011;68658;46.174;11.254;2023-06-10T13:24:17;7.15;;;4.30;;
79227;SDS011;68658;46.174;11.254;2023-06-10T13:26:43;6.82;;;4.00;;
79227;SDS011;68658;46.174;11.254;2023-06-10T13:29:09;6.50;;;3.35;;
79227;SDS011;68658;46.174;11.254;2023-06-10T13:31:39;7.85;;;4.50;;
79227;SDS011;68658;46.174;11.254;2023-06-10T13:34:05;6.70;;;3.80;;
79227;SDS011;68658;46.174;11.254;2023-06-10T13:36:31;6.32;;;3.50;;
79227;SDS011;68658;46.174;11.254;2023-06-10T13:38:57;6.32;;;3.15;;
79227;SDS011;68658;46.174;11.254;2023-06-10T13:41:23;5.63;;;2.85;;
79227;SDS011;68658;46.174;11.254;2023-06-10T13:43:49;5.05;;;2.35;;
79227;SDS011;68658;46.174;11.254;2023-06-10T13:46:15;7.43;;;3.40;;
79227;SDS011;68658;46.174;11.254;2023-06-10T13:48:41;6.47;;;3.00;;
79227;SDS011;68658;46.174;11.254;2023-06-10T13:51:07;7.28;;;3.00;;
79227;SDS011;68658;46.174;11.254;2023-06-10T13:53:36;7.05;;;2.40;;
79227;SDS011;68658;46.174;11.254;2023-06-10T13:56:02;7.75;;;3.00;;
79227;SDS011;68658;46.174;11.254;2023-06-10T13:58:28;7.97;;;3.63;;
79227;SDS011;68658;46.174;11.254;2023-06-10T14:00:54;6.00;;;3.10;;
79227;SDS011;68658;46.174;11.254;2023-06-10T14:03:19;6.70;;;3.10;;
79227;SDS011;68658;46.174;11.254;2023-06-10T14:05:45;6.65;;;3.20;;
79227;SDS011;68658;46.174;11.254;2023-06-10T14:08:10;6.50;;;2.88;;
79227;SDS011;68658;46.174;11.254;2023-06-10T14:10:36;5.70;;;2.72;;
79227;SDS011;68658;46.174;11.254;2023-06-10T14:13:02;7.13;;;2.72;;
79227;SDS011;68658;46.174;11.254;2023-06-10T14:15:28;6.63;;;3.08;;
79227;SDS011;68658;46.174;11.254;2023-06-10T14:17:53;6.47;;;3.30;;
79227;SDS011;68658;46.174;11.254;2023-06-10T14:20:20;7.75;;;2.90;;
79227;SDS011;68658;46.174;11.254;2023-06-10T14:22:49;5.22;;;2.65;;
79227;SDS011;68658;46.174;11.254;2023-06-10T14:25:17;6.60;;;2.70;;
79227;SDS011;68658;46.174;11.254;2023-06-10T14:27:43;7.43;;;3.08;;
79227;SDS011;68658;46.174;11.254;2023-06-10T14:30:09;6.32;;;3.25;;
79227;SDS011;68658;46.174;11.254;2023-06-10T14:32:35;6.50;;;2.92;;
79227;SDS011;68658;46.174;11.254;2023-06-10T14:35:00;7.32;;;3.50;;
79227;SDS011;68658;46.174;11.254;2023-06-10T14:37:26;5.80;;;3.03;;
79227;SDS011;68658;46.174;11.254;2023-06-10T14:39:51;5.90;;;2.85;;
79227;SDS011;68658;46.174;11.254;2023-06-10T14:42:17;4.85;;;2.58;;
79227;SDS011;68658;46.174;11.254;2023-06-10T14:44:42;6.35;;;2.75;;
79227;SDS011;68658;46.174;11.254;2023-06-10T14:47:08;7.88;;;2.38;;
79227;SDS011;68658;46.174;11.254;2023-06-10T14:49:34;6.57;;;2.83;;
79227;SDS011;68658;46.174;11.254;2023-06-10T14:51:59;7.90;;;3.17;;
79227;SDS011;68658;46.174;11.254;2023-06-10T14:54:27;8.88;;;5.10;;
79227;SDS011;68658;46.174;11.254;2023-06-10T14:56:53;6.35;;;2.65;;
79227;SDS011;68658;46.174;11.254;2023-06-10T14:59:19;11.00;;;3.10;;
79227;SDS011;68658;46.174;11.254;2023-06-10T15:01:47;5.45;;;2.17;;
79227;SDS011;68658;46.174;11.254;2023-06-10T15:04:12;6.30;;;2.60;;